Flight Number: AVA1515 Duration: 3:00
Departure: Vladivostok Knevichi (UHWW) at 07:15 Distance: 1127.22 Nm
Arrival: Yakutsk (UEEE) at 10:15 Equipment: A340

Weather Information
Vladivostok, Russia (UHWW) 43-07N 131-56E 183M Sep 27, 2020 - 12:00 PM EDT / 2020.09.27 1600 UTC
Wind: from the E (080 degrees) at 4 MPH (4 KT):0
Visibility: greater than 7 mile(s):0 Weather: patches of fog Temperature: 50 F (10 C) Dew Point: 50 F (10 C) Relative Humidity: 100% Pressure (altimeter): 30.06 in. Hg (1018 hPa)
ob: UHWW 271600Z 08002MPS 9999 BCFG NSC 10/10 Q1018 R25L/0///70 NOSIG RMK QFE762 cycle: 16
Sunrise: 21:08 Sunset: 08:56 (UTC)

Jakutsk, Russia (UEEE) 62-01N 129-43E 101M Sep 27, 2020 - 12:00 PM EDT / 2020.09.27 1600 UTC
Wind: from the S (190 degrees) at 9 MPH (8 KT):0
Visibility: greater than 7 mile(s):0 Temperature: 50 F (10 C) Dew Point: 44 F (7 C) Relative Humidity: 81% Pressure (altimeter): 29.44 in. Hg (0997 hPa)
ob: UEEE 271600Z 19004MPS CAVOK 10/07 Q0997 R23L/09//60 NOSIG RMK QFE739 cycle: 16
Sunrise: 21:24 Sunset: 08:59 (UTC)

TAF:2020/09/27 15:21 TAF UEEE 271400Z 2715/2821 19005G10MPS 3200 -SHRA FU SCT011 BKN020CB OVC070 TEMPO 2715/2803 VRB01MPS 0300 SHRA FG VV002 BECMG 2803/2805 29006G11MPS

Previous Pireps for this route
Date Aircraft Flight time Fuel used Landing rate On time
2015-07-23A34003.2132914-371Yes
2017-10-03B777-200F3.1067851-347Charter
2020-04-16A34002.5747943-50Yes
(pireps marked green are flown by you)

Route map